createdAt,value
2023-01-19T00:00:44.662Z,71.17
2023-01-19T00:06:08.377Z,71.23
2023-01-19T00:11:12.826Z,71.23
2023-01-19T00:16:20.046Z,71.20
2023-01-19T00:21:23.516Z,71.21
2023-01-19T00:26:26.528Z,71.32
2023-01-19T00:31:30.248Z,71.28
2023-01-19T00:36:33.996Z,71.18
2023-01-19T00:41:55.512Z,71.32
2023-01-19T00:46:58.520Z,71.60
2023-01-19T00:52:01.745Z,71.71
2023-01-19T00:57:05.147Z,71.87
2023-01-19T01:02:08.661Z,71.80
2023-01-19T01:07:11.874Z,71.69
2023-01-19T01:12:14.983Z,71.67
2023-01-19T01:17:18.278Z,71.73
2023-01-19T01:22:21.196Z,71.76
2023-01-19T01:27:24.107Z,71.88
2023-01-19T01:32:27.108Z,71.95
2023-01-19T01:37:30.112Z,71.97
2023-01-19T01:42:34.698Z,71.93
2023-01-19T01:47:47.802Z,71.70
2023-01-19T01:53:14.116Z,71.72
2023-01-19T01:58:17.433Z,71.80
2023-01-19T02:03:23.459Z,71.84
2023-01-19T02:09:37.622Z,71.66
2023-01-19T02:14:40.623Z,71.58
2023-01-19T02:19:44.015Z,71.32
2023-01-19T02:24:47.265Z,71.43
2023-01-19T02:29:50.269Z,71.27
2023-01-19T02:34:53.575Z,71.15
2023-01-19T02:39:59.347Z,71.06
2023-01-19T02:45:06.881Z,70.98
2023-01-19T02:50:29.559Z,70.86
2023-01-19T02:55:34.340Z,70.46
2023-01-19T03:00:48.086Z,70.05
2023-01-19T03:05:57.149Z,70.27
2023-01-19T03:11:08.388Z,69.99
2023-01-19T03:16:34.548Z,70.15
2023-01-19T03:21:40.716Z,70.18
2023-01-19T03:26:49.349Z,70.36
2023-01-19T03:31:54.140Z,70.13
2023-01-19T03:37:02.491Z,70.13
2023-01-19T03:42:09.636Z,69.51
2023-01-19T03:47:15.134Z,69.20
2023-01-19T03:52:18.102Z,69.19
2023-01-19T03:57:21.417Z,69.14
2023-01-19T04:02:25.182Z,68.72
2023-01-19T04:07:28.650Z,68.75
2023-01-19T04:12:31.768Z,68.88
2023-01-19T04:17:34.873Z,69.35
2023-01-19T04:22:39.317Z,69.94
2023-01-19T04:27:42.417Z,69.85
2023-01-19T04:32:45.629Z,69.54
2023-01-19T04:37:48.749Z,70.08
2023-01-19T04:42:51.847Z,70.57
2023-01-19T04:47:54.955Z,70.46
2023-01-19T04:52:58.477Z,71.10
2023-01-19T04:58:01.705Z,71.36
2023-01-19T05:03:05.396Z,71.07
2023-01-19T05:08:08.828Z,71.57
2023-01-19T05:13:11.831Z,71.62
2023-01-19T05:18:14.835Z,71.61
2023-01-19T05:23:18.052Z,71.48
2023-01-19T05:28:21.873Z,71.41
2023-01-19T05:33:25.597Z,71.34
2023-01-19T05:38:35.390Z,71.21
2023-01-19T05:43:38.882Z,70.95
2023-01-19T05:48:41.784Z,70.92
2023-01-19T05:53:44.994Z,71.18
2023-01-19T05:58:48.101Z,71.25
2023-01-19T06:03:51.211Z,71.37
2023-01-19T06:08:54.636Z,71.53
2023-01-19T06:13:57.747Z,71.78
2023-01-19T06:19:00.742Z,71.79
2023-01-19T06:24:04.362Z,71.56
2023-01-19T06:29:07.275Z,71.68
2023-01-19T06:34:10.954Z,72.13
2023-01-19T06:39:13.892Z,72.25
2023-01-19T06:44:17.009Z,72.98
2023-01-19T06:49:20.013Z,72.98
2023-01-19T06:54:23.117Z,72.61
2023-01-19T06:59:26.329Z,72.59
2023-01-19T07:04:29.441Z,72.01
2023-01-19T07:09:32.348Z,72.01
2023-01-19T07:14:35.355Z,72.29
2023-01-19T07:19:38.353Z,72.28
2023-01-19T07:24:41.685Z,72.00
2023-01-19T07:29:44.676Z,71.73
2023-01-19T07:34:47.889Z,71.22
2023-01-19T07:39:50.997Z,71.22
2023-01-19T07:44:54.103Z,71.47
2023-01-19T07:49:57.166Z,72.02
2023-01-19T07:55:00.037Z,72.34
2023-01-19T08:00:05.124Z,72.41
2023-01-19T08:05:08.677Z,72.71
2023-01-19T08:10:13.624Z,73.25
2023-01-19T08:15:16.684Z,73.18
2023-01-19T08:20:19.662Z,73.13
2023-01-19T08:25:23.690Z,73.08
2023-01-19T08:30:27.074Z,73.17
2023-01-19T08:35:43.455Z,72.90
2023-01-19T08:40:46.948Z,72.14
2023-01-19T08:45:53.451Z,71.65
2023-01-19T08:50:57.187Z,71.68
2023-01-19T08:56:01.485Z,71.84
2023-01-19T09:01:05.457Z,71.55
2023-01-19T09:06:10.364Z,70.96
2023-01-19T09:11:15.118Z,70.76
2023-01-19T09:16:18.460Z,70.81
2023-01-19T09:21:21.644Z,70.92
2023-01-19T09:26:24.754Z,70.91
2023-01-19T09:31:27.858Z,70.94
2023-01-19T09:36:31.170Z,71.19
2023-01-19T09:41:36.847Z,71.16
2023-01-19T09:46:44.516Z,70.17
2023-01-19T09:51:50.646Z,69.19
2023-01-19T09:56:54.354Z,69.01
2023-01-19T10:02:33.522Z,69.25
2023-01-19T10:07:54.946Z,69.24
2023-01-19T10:13:19.768Z,69.03
2023-01-19T10:18:48.783Z,68.79
2023-01-19T10:23:54.845Z,68.34
2023-01-19T10:29:03.086Z,68.33
2023-01-19T10:34:06.126Z,68.41
2023-01-19T10:39:13.853Z,69.00
2023-01-19T10:44:25.677Z,69.24
2023-01-19T10:49:39.286Z,69.74
2023-01-19T10:54:43.806Z,69.76
2023-01-19T10:59:51.154Z,69.38
2023-01-19T11:04:57.251Z,69.40
2023-01-19T11:10:25.943Z,68.52
2023-01-19T11:15:35.955Z,68.05
2023-01-19T11:20:51.355Z,67.94
2023-01-19T11:25:58.398Z,68.27
2023-01-19T11:31:10.362Z,68.88
2023-01-19T11:36:39.831Z,68.89
2023-01-19T11:41:43.048Z,68.45
2023-01-19T11:46:51.147Z,68.31
2023-01-19T11:52:07.087Z,68.82
2023-01-19T11:57:13.877Z,68.72
2023-01-19T12:02:45.057Z,69.16
2023-01-19T12:07:50.306Z,69.50
2023-01-19T12:12:54.438Z,68.78
2023-01-19T12:18:00.810Z,68.58
2023-01-19T12:23:03.942Z,69.41
2023-01-19T12:28:12.974Z,69.03
2023-01-19T12:33:33.603Z,68.04
2023-01-19T12:38:55.039Z,68.45
2023-01-19T12:44:10.036Z,68.97
2023-01-19T12:49:37.806Z,68.49
2023-01-19T12:54:50.402Z,68.29
2023-01-19T13:00:02.255Z,67.89
2023-01-19T13:05:25.726Z,67.83
2023-01-19T13:10:59.878Z,67.82
2023-01-19T13:16:30.019Z,68.12
2023-01-19T13:21:47.566Z,68.41
2023-01-19T13:26:50.677Z,68.79
2023-01-19T13:32:02.615Z,68.85
2023-01-19T13:37:06.639Z,69.10
2023-01-19T13:42:28.865Z,69.30
2023-01-19T13:47:39.284Z,69.51
2023-01-19T13:52:43.491Z,70.03
2023-01-19T13:57:49.061Z,70.35
2023-01-19T14:03:10.991Z,70.39
2023-01-19T14:08:15.779Z,70.49
2023-01-19T14:13:20.197Z,70.82
2023-01-19T14:18:31.576Z,70.92
2023-01-19T14:23:51.705Z,71.43
2023-01-19T14:28:54.916Z,71.23
2023-01-19T14:33:58.739Z,71.21
2023-01-19T14:39:03.234Z,71.56
2023-01-19T14:44:20.047Z,71.95
2023-01-19T14:49:34.098Z,71.80
2023-01-19T14:54:43.029Z,71.90
2023-01-19T14:59:49.846Z,71.82
2023-01-19T15:04:55.527Z,71.81
2023-01-19T15:09:59.492Z,71.93
2023-01-19T15:15:02.792Z,72.09
2023-01-19T15:20:13.721Z,72.19
2023-01-19T15:25:19.796Z,72.01
2023-01-19T15:30:29.757Z,71.99
2023-01-19T15:35:32.880Z,72.13
2023-01-19T15:40:35.990Z,72.14
2023-01-19T15:45:55.304Z,72.41
2023-01-19T15:50:58.382Z,72.37
2023-01-19T15:56:01.394Z,72.44
2023-01-19T16:01:04.849Z,72.16
2023-01-19T16:06:08.853Z,72.11
2023-01-19T16:11:14.919Z,71.64
2023-01-19T16:16:20.978Z,71.38
2023-01-19T16:21:24.398Z,71.49
2023-01-19T16:26:27.557Z,71.31
2023-01-19T16:31:30.638Z,71.50
2023-01-19T16:36:35.900Z,70.88
2023-01-19T16:41:39.307Z,71.03
2023-01-19T16:46:44.867Z,71.27
2023-01-19T16:51:49.094Z,71.44
2023-01-19T16:56:53.340Z,71.82
2023-01-19T17:01:57.191Z,72.03
2023-01-19T17:07:00.378Z,72.41
2023-01-19T17:12:04.264Z,72.40
2023-01-19T17:17:09.956Z,72.37
2023-01-19T17:22:14.391Z,72.17
2023-01-19T17:27:17.514Z,72.00
2023-01-19T17:32:20.428Z,72.04
2023-01-19T17:37:23.430Z,72.31
2023-01-19T17:42:26.747Z,72.41
2023-01-19T17:47:29.850Z,72.69
2023-01-19T17:52:33.077Z,72.91
2023-01-19T17:57:36.648Z,72.89
2023-01-19T18:02:40.486Z,72.89
2023-01-19T18:07:43.716Z,73.06
2023-01-19T18:12:46.628Z,73.01
2023-01-19T18:17:49.628Z,72.90
2023-01-19T18:22:52.737Z,72.77
2023-01-19T18:27:55.641Z,72.64
2023-01-19T18:32:58.655Z,72.75
2023-01-19T18:38:01.661Z,72.84
2023-01-19T18:43:04.767Z,72.77
2023-01-19T18:48:08.166Z,72.19
2023-01-19T18:53:11.088Z,71.50
2023-01-19T18:58:14.096Z,70.87
2023-01-19T19:03:17.870Z,70.83
2023-01-19T19:08:20.825Z,70.52
2023-01-19T19:13:23.823Z,70.53
2023-01-19T19:18:26.832Z,70.84
2023-01-19T19:23:29.843Z,71.31
2023-01-19T19:28:33.627Z,71.62
2023-01-19T19:33:38.519Z,71.65
2023-01-19T19:38:43.072Z,71.65
2023-01-19T19:43:46.169Z,71.56
2023-01-19T19:48:49.818Z,71.40
2023-01-19T19:53:55.356Z,71.20
2023-01-19T19:58:59.661Z,71.17
2023-01-19T20:04:08.919Z,71.26
2023-01-19T20:09:14.149Z,71.34
2023-01-19T20:14:17.303Z,71.31
2023-01-19T20:19:20.389Z,71.71
2023-01-19T20:24:23.527Z,72.27
2023-01-19T20:29:26.643Z,72.59
2023-01-19T20:34:33.357Z,72.83
2023-01-19T20:39:37.366Z,73.53
2023-01-19T20:44:40.473Z,73.29
2023-01-19T20:49:43.685Z,73.13
2023-01-19T20:54:46.903Z,73.17
2023-01-19T20:59:50.125Z,73.58
2023-01-19T21:04:54.859Z,73.91
2023-01-19T21:09:58.557Z,74.06
2023-01-19T21:15:02.319Z,73.63
2023-01-19T21:20:06.644Z,73.37
2023-01-19T21:25:10.183Z,73.38
2023-01-19T21:30:13.471Z,73.27
2023-01-19T21:35:16.796Z,73.01
2023-01-19T21:40:19.908Z,72.77
2023-01-19T21:45:23.332Z,72.65
2023-01-19T21:50:26.529Z,72.59
2023-01-19T21:55:30.159Z,72.06
2023-01-19T22:00:33.251Z,71.50
2023-01-19T22:05:37.205Z,70.85
2023-01-19T22:10:40.155Z,70.50
2023-01-19T22:15:43.090Z,70.31
2023-01-19T22:20:46.095Z,69.81
2023-01-19T22:25:49.328Z,69.21
2023-01-19T22:30:52.638Z,69.30
2023-01-19T22:35:55.725Z,69.49
2023-01-19T22:40:58.732Z,69.81
2023-01-19T22:46:02.482Z,69.87
2023-01-19T22:51:06.805Z,69.84
2023-01-19T22:56:11.617Z,69.31
2023-01-19T23:01:22.929Z,69.34
2023-01-19T23:06:28.823Z,69.67
2023-01-19T23:11:43.907Z,70.28
2023-01-19T23:16:47.521Z,70.39
2023-01-19T23:21:53.039Z,70.11
2023-01-19T23:26:55.997Z,69.89
2023-01-19T23:31:59.211Z,69.60
2023-01-19T23:37:02.319Z,69.63
2023-01-19T23:42:06.554Z,69.79
2023-01-19T23:47:09.760Z,69.78
2023-01-19T23:52:12.973Z,70.32
2023-01-19T23:57:15.982Z,70.54
